createdAt,value
2018-12-20T00:03:06.860Z,64.89
2018-12-20T00:05:39.498Z,64.48
2018-12-20T00:08:11.949Z,64.46
2018-12-20T00:10:42.616Z,64.09
2018-12-20T00:13:12.809Z,63.90
2018-12-20T00:15:41.426Z,64.57
2018-12-20T00:18:09.933Z,64.87
2018-12-20T00:20:38.876Z,64.31
2018-12-20T00:23:07.374Z,64.28
2018-12-20T00:28:12.624Z,65.14
2018-12-20T00:30:41.257Z,64.68
2018-12-20T00:33:12.087Z,65.01
2018-12-20T00:35:40.773Z,64.72
2018-12-20T00:38:09.522Z,65.18
2018-12-20T00:40:39.355Z,65.00
2018-12-20T00:43:09.081Z,65.41
2018-12-20T00:45:39.515Z,64.95
2018-12-20T00:48:09.206Z,64.67
2018-12-20T00:50:37.948Z,64.76
2018-12-20T00:53:07.680Z,64.98
2018-12-20T00:55:35.876Z,64.70
2018-12-20T00:58:04.956Z,64.02
2018-12-20T01:00:33.397Z,63.98
2018-12-20T01:03:01.688Z,64.07
2018-12-20T01:05:41.105Z,64.62
2018-12-20T01:08:12.207Z,64.40
2018-12-20T01:10:41.640Z,64.97
2018-12-20T01:13:09.836Z,65.10
2018-12-20T01:15:39.297Z,64.47
2018-12-20T01:18:07.954Z,64.23
2018-12-20T01:20:36.075Z,64.11
2018-12-20T01:23:04.303Z,64.01
2018-12-20T01:25:33.075Z,63.99
2018-12-20T01:28:02.844Z,64.26
2018-12-20T01:30:33.769Z,63.71
2018-12-20T01:33:09.223Z,63.64
2018-12-20T01:35:38.055Z,64.52
2018-12-20T01:38:06.858Z,63.82
2018-12-20T01:40:35.516Z,64.86
2018-12-20T01:43:04.414Z,64.45
2018-12-20T01:45:32.920Z,64.54
2018-12-20T01:48:01.542Z,63.99
2018-12-20T01:50:32.570Z,64.34
2018-12-20T01:53:00.955Z,65.22
2018-12-20T01:55:29.980Z,64.24
2018-12-20T01:57:59.064Z,64.99
2018-12-20T02:00:28.028Z,65.12
2018-12-20T02:03:01.710Z,64.61
2018-12-20T02:05:30.503Z,65.70
2018-12-20T02:08:05.083Z,65.03
2018-12-20T02:10:33.378Z,64.99
2018-12-20T02:13:02.879Z,65.02
2018-12-20T02:15:31.501Z,64.84
2018-12-20T02:18:02.508Z,64.29
2018-12-20T02:20:31.602Z,64.77
2018-12-20T02:23:00.293Z,63.87
2018-12-20T02:25:28.529Z,64.65
2018-12-20T02:27:58.147Z,64.35
2018-12-20T02:30:27.027Z,63.96
2018-12-20T02:33:08.882Z,64.16
2018-12-20T02:38:13.666Z,64.19
2018-12-20T02:40:41.960Z,65.05
2018-12-20T02:43:10.356Z,64.34
2018-12-20T02:45:38.922Z,64.29
2018-12-20T02:48:07.050Z,64.69
2018-12-20T02:50:35.224Z,64.78
2018-12-20T02:53:03.421Z,64.11
2018-12-20T02:55:32.330Z,63.93
2018-12-20T02:58:01.626Z,64.17
2018-12-20T03:00:30.033Z,64.44
2018-12-20T03:02:58.719Z,64.37
2018-12-20T03:11:10.299Z,63.93
2018-12-20T03:13:38.823Z,63.76
2018-12-20T03:16:07.806Z,62.86
2018-12-20T03:18:36.122Z,63.31
2018-12-20T03:21:04.563Z,63.70
2018-12-20T03:23:36.639Z,63.02
2018-12-20T03:26:04.842Z,62.79
2018-12-20T03:28:33.076Z,63.84
2018-12-20T03:31:02.508Z,63.38
2018-12-20T03:36:17.108Z,63.58
2018-12-20T03:38:45.690Z,62.87
2018-12-20T03:41:14.186Z,63.50
2018-12-20T03:43:42.802Z,62.78
2018-12-20T03:46:11.430Z,63.03
2018-12-20T03:48:41.561Z,63.02
2018-12-20T03:51:11.222Z,63.12
2018-12-20T03:53:39.507Z,62.37
2018-12-20T03:56:08.549Z,62.12
2018-12-20T03:58:41.774Z,62.32
2018-12-20T04:03:55.289Z,62.48
2018-12-20T04:06:23.961Z,63.01
2018-12-20T04:08:53.862Z,62.84
2018-12-20T04:11:22.426Z,62.67
2018-12-20T04:13:50.537Z,62.66
2018-12-20T04:16:18.992Z,62.44
2018-12-20T04:18:47.797Z,62.17
2018-12-20T04:21:18.015Z,63.01
2018-12-20T04:23:47.053Z,62.23
2018-12-20T04:26:15.248Z,62.41
2018-12-20T04:28:44.269Z,63.18
2018-12-20T04:31:13.059Z,62.60
2018-12-20T04:33:41.740Z,62.57
2018-12-20T04:36:13.078Z,63.36
2018-12-20T04:38:41.604Z,62.81
2018-12-20T04:41:12.637Z,64.27
2018-12-20T04:43:44.474Z,65.71
2018-12-20T04:46:14.124Z,67.67
2018-12-20T04:48:42.615Z,68.18
2018-12-20T04:51:10.878Z,67.22
2018-12-20T04:53:39.439Z,67.54
2018-12-20T04:56:12.356Z,68.48
2018-12-20T04:58:41.737Z,69.17
2018-12-20T05:01:10.334Z,71.89
2018-12-20T05:03:39.368Z,70.16
2018-12-20T05:06:09.916Z,68.73
2018-12-20T05:08:40.288Z,68.45
2018-12-20T05:11:08.658Z,67.46
2018-12-20T05:13:37.218Z,69.03
2018-12-20T05:16:06.221Z,70.26
2018-12-20T05:18:34.714Z,70.41
2018-12-20T05:21:03.488Z,70.11
2018-12-20T05:23:32.807Z,71.00
2018-12-20T05:26:01.258Z,71.67
2018-12-20T05:28:32.379Z,71.46
2018-12-20T05:31:01.803Z,70.83
2018-12-20T05:33:30.839Z,70.77
2018-12-20T05:37:51.266Z,72.61
2018-12-20T05:40:20.897Z,72.29
2018-12-20T05:42:52.611Z,72.27
2018-12-20T05:45:25.178Z,72.06
2018-12-20T05:47:55.783Z,71.86
2018-12-20T05:50:26.204Z,71.17
2018-12-20T05:52:55.692Z,71.35
2018-12-20T05:55:24.845Z,71.73
2018-12-20T05:57:53.417Z,71.10
2018-12-20T06:00:21.974Z,70.86
2018-12-20T06:02:51.266Z,70.99
2018-12-20T06:05:20.615Z,69.94
2018-12-20T06:07:50.586Z,69.44
2018-12-20T06:10:19.763Z,68.65
2018-12-20T06:12:47.983Z,70.15
2018-12-20T06:15:17.857Z,69.95
2018-12-20T06:17:46.397Z,69.62
2018-12-20T06:20:15.209Z,69.73
2018-12-20T06:25:00.028Z,71.28
2018-12-20T06:27:28.290Z,70.47
2018-12-20T06:29:56.335Z,70.48
2018-12-20T06:32:25.286Z,69.91
2018-12-20T06:34:53.799Z,70.61
2018-12-20T06:37:22.614Z,70.29
2018-12-20T06:39:52.714Z,69.72
2018-12-20T06:42:21.680Z,68.97
2018-12-20T06:48:04.017Z,68.73
2018-12-20T06:50:33.959Z,68.61
2018-12-20T06:53:02.437Z,69.17
2018-12-20T06:55:33.479Z,68.76
2018-12-20T06:58:03.951Z,68.09
2018-12-20T07:00:33.303Z,67.77
2018-12-20T07:03:08.705Z,67.74
2018-12-20T07:05:37.041Z,67.81
2018-12-20T07:08:06.986Z,66.74
2018-12-20T07:10:36.102Z,66.01
2018-12-20T07:13:05.476Z,66.20
2018-12-20T07:15:34.609Z,66.55
2018-12-20T07:18:04.041Z,66.70
2018-12-20T07:20:57.111Z,66.01
2018-12-20T07:23:40.397Z,66.01
2018-12-20T07:26:09.389Z,66.37
2018-12-20T07:28:37.834Z,65.79
2018-12-20T07:31:07.138Z,65.63
2018-12-20T07:33:36.303Z,64.78
2018-12-20T07:36:18.891Z,65.91
2018-12-20T07:38:47.959Z,66.78
2018-12-20T07:41:16.830Z,66.29
2018-12-20T07:43:45.579Z,66.06
2018-12-20T07:49:02.753Z,66.94
2018-12-20T07:51:34.441Z,66.62
2018-12-20T07:54:06.127Z,65.25
2018-12-20T07:58:36.990Z,64.26
2018-12-20T08:01:08.110Z,65.04
2018-12-20T08:08:28.253Z,65.84
2018-12-20T08:10:59.488Z,65.30
2018-12-20T08:13:28.122Z,63.63
2018-12-20T08:15:58.122Z,64.63
2018-12-20T08:18:30.983Z,65.11
2018-12-20T08:21:04.699Z,64.55
2018-12-20T08:23:38.562Z,64.77
2018-12-20T08:26:07.461Z,63.74
2018-12-20T08:28:37.004Z,64.43
2018-12-20T08:34:09.640Z,64.51
2018-12-20T08:36:39.883Z,65.21
2018-12-20T08:39:08.774Z,64.16
2018-12-20T08:41:37.070Z,65.46
2018-12-20T08:44:08.055Z,65.48
2018-12-20T09:29:28.677Z,65.50
2018-12-20T09:31:57.442Z,65.25
2018-12-20T09:34:28.289Z,64.78
2018-12-20T09:36:57.129Z,65.62
2018-12-20T09:39:27.343Z,65.21
2018-12-20T09:41:59.624Z,64.67
2018-12-20T09:44:27.822Z,63.57
2018-12-20T09:47:11.415Z,63.94
2018-12-20T09:49:40.097Z,64.96
2018-12-20T09:52:10.455Z,65.22
2018-12-20T09:54:39.037Z,65.21
2018-12-20T09:57:08.371Z,64.65
2018-12-20T09:59:37.671Z,64.95
2018-12-20T10:02:10.492Z,65.37
2018-12-20T10:04:40.041Z,64.09
2018-12-20T10:07:09.688Z,64.16
2018-12-20T10:09:41.999Z,63.96
2018-12-20T10:12:10.943Z,64.10
2018-12-20T10:14:41.121Z,63.39
2018-12-20T10:17:19.821Z,63.09
2018-12-20T10:19:47.529Z,63.82
2018-12-20T10:22:18.427Z,63.02
2018-12-20T10:24:51.770Z,63.36
2018-12-20T10:27:31.243Z,63.88
2018-12-20T10:29:54.615Z,63.24
2018-12-20T10:32:23.507Z,63.21
2018-12-20T10:34:52.275Z,63.09
2018-12-20T10:37:21.434Z,63.26
2018-12-20T10:39:52.333Z,64.00
2018-12-20T10:42:29.726Z,63.29
2018-12-20T10:45:15.127Z,64.42
2018-12-20T10:50:31.988Z,64.20
2018-12-20T10:53:03.186Z,63.15
2018-12-20T10:55:34.743Z,62.06
2018-12-20T10:58:04.421Z,62.57
2018-12-20T11:00:41.263Z,61.46
2018-12-20T11:03:16.545Z,63.75
2018-12-20T11:05:50.785Z,63.53
2018-12-20T11:08:24.508Z,63.69
2018-12-20T11:13:42.097Z,62.93
2018-12-20T11:16:11.451Z,62.42
2018-12-20T11:18:40.815Z,60.99
2018-12-20T11:21:09.535Z,60.89
2018-12-20T11:23:40.104Z,60.68
2018-12-20T11:26:10.387Z,60.32
2018-12-20T11:28:39.638Z,60.10
2018-12-20T11:31:11.035Z,60.80
2018-12-20T11:33:39.869Z,59.46
2018-12-20T11:36:09.402Z,59.98
2018-12-20T11:38:38.893Z,59.63
2018-12-20T11:41:07.193Z,59.65
2018-12-20T11:43:38.831Z,59.07
2018-12-20T11:48:02.497Z,59.37
2018-12-20T11:50:32.818Z,59.39
2018-12-20T11:53:01.279Z,59.71
2018-12-20T11:55:33.135Z,59.31
2018-12-20T11:58:06.004Z,59.48
2018-12-20T12:00:38.030Z,58.71
2018-12-20T12:03:09.053Z,59.06
2018-12-20T12:05:37.178Z,60.36
2018-12-20T12:08:07.742Z,59.55
2018-12-20T12:10:36.820Z,59.09
2018-12-20T12:13:06.694Z,59.18
2018-12-20T12:15:42.855Z,58.62
2018-12-20T12:19:12.862Z,59.24
2018-12-20T12:21:42.281Z,59.41
2018-12-20T12:24:15.584Z,58.42
2018-12-20T12:26:45.452Z,59.16
2018-12-20T12:29:14.362Z,58.52
2018-12-20T12:31:48.532Z,57.47
2018-12-20T12:34:16.907Z,57.38
2018-12-20T12:36:46.416Z,56.13
2018-12-20T12:39:16.120Z,56.13
2018-12-20T12:41:45.374Z,55.92
2018-12-20T12:44:15.843Z,56.84
2018-12-20T12:47:32.925Z,56.08
2018-12-20T12:50:03.392Z,55.69
2018-12-20T12:52:31.795Z,56.44
2018-12-20T12:55:03.293Z,56.28
2018-12-20T12:58:44.392Z,56.33
2018-12-20T13:01:15.610Z,55.49
2018-12-20T13:03:48.249Z,55.77
2018-12-20T13:06:18.096Z,56.48
2018-12-20T13:08:46.188Z,56.70
2018-12-20T13:11:18.162Z,56.58
2018-12-20T13:13:46.627Z,56.49
2018-12-20T13:16:17.510Z,56.82
2018-12-20T13:18:47.732Z,56.29
2018-12-20T13:21:24.034Z,55.77
2018-12-20T13:23:53.004Z,56.10
2018-12-20T13:26:32.387Z,56.45
2018-12-20T13:30:22.544Z,56.20
2018-12-20T13:32:50.988Z,55.94
2018-12-20T13:35:26.658Z,56.50
2018-12-20T13:40:40.978Z,57.00
2018-12-20T13:43:11.575Z,57.63
2018-12-20T13:47:42.142Z,58.16
2018-12-20T13:50:13.686Z,57.92
2018-12-20T13:52:45.202Z,57.68
2018-12-20T13:55:15.713Z,57.50
2018-12-20T14:00:16.581Z,57.16
2018-12-20T14:02:54.229Z,57.30
2018-12-20T14:05:24.750Z,57.59
2018-12-20T14:08:06.106Z,57.55
2018-12-20T14:10:46.673Z,57.24
2018-12-20T14:13:16.596Z,56.62
2018-12-20T14:15:49.275Z,57.30
2018-12-20T14:18:31.154Z,57.20
2018-12-20T14:21:09.343Z,58.66
2018-12-20T14:23:41.532Z,59.38
2018-12-20T14:26:10.620Z,59.05
2018-12-20T14:28:41.084Z,60.25
2018-12-20T14:31:14.327Z,61.19
2018-12-20T14:33:53.130Z,62.09
2018-12-20T14:36:23.910Z,62.24
2018-12-20T14:38:52.162Z,62.45
2018-12-20T14:41:21.903Z,63.44
2018-12-20T14:43:52.617Z,63.15
2018-12-20T14:46:22.838Z,64.11
2018-12-20T14:54:08.532Z,64.10
2018-12-20T14:56:37.142Z,63.74
2018-12-20T14:59:20.762Z,63.54
2018-12-20T15:01:51.520Z,63.96
2018-12-20T15:04:22.107Z,63.34
2018-12-20T15:06:55.276Z,63.82
2018-12-20T15:09:43.062Z,63.63
2018-12-20T15:12:24.552Z,63.60
2018-12-20T15:18:04.893Z,63.52
2018-12-20T15:20:40.772Z,63.92
2018-12-20T15:23:15.552Z,63.66
2018-12-20T15:25:53.384Z,63.28
2018-12-20T15:28:28.187Z,63.83
2018-12-20T15:31:02.592Z,63.19
2018-12-20T15:33:33.643Z,63.84
2018-12-20T15:36:23.827Z,63.47
2018-12-20T15:39:04.504Z,63.27
2018-12-20T15:41:40.184Z,63.66
2018-12-20T15:44:17.754Z,62.88
2018-12-20T15:46:49.446Z,62.31
2018-12-20T15:49:26.486Z,62.54
2018-12-20T15:52:16.025Z,63.55
2018-12-20T15:54:58.637Z,63.09
2018-12-20T15:57:32.737Z,62.83
2018-12-20T16:00:08.423Z,62.91
2018-12-20T16:03:03.314Z,62.76
2018-12-20T16:05:44.012Z,62.16
2018-12-20T16:08:21.772Z,62.37
2018-12-20T16:11:05.076Z,61.57
2018-12-20T16:13:46.991Z,61.04
2018-12-20T16:16:19.257Z,61.70
2018-12-20T16:18:51.655Z,61.57
2018-12-20T16:21:21.407Z,61.10
2018-12-20T16:23:52.520Z,61.36
2018-12-20T16:26:26.235Z,61.67
2018-12-20T16:28:59.563Z,61.69
2018-12-20T16:31:32.826Z,61.40
2018-12-20T16:34:05.306Z,61.21
2018-12-20T16:36:36.572Z,61.89
2018-12-20T16:39:17.345Z,61.21
2018-12-20T16:41:48.690Z,61.94
2018-12-20T16:44:26.385Z,61.86
2018-12-20T16:47:05.633Z,61.64
2018-12-20T16:52:18.092Z,61.01
2018-12-20T16:54:54.495Z,61.50
2018-12-20T17:02:05.667Z,62.45
2018-12-20T17:04:37.727Z,63.09
2018-12-20T17:07:09.226Z,63.66
2018-12-20T17:09:54.783Z,64.31
2018-12-20T17:12:24.381Z,64.91
2018-12-20T17:14:55.049Z,66.35
2018-12-20T17:26:24.866Z,65.14
2018-12-20T17:28:58.439Z,65.21
2018-12-20T17:31:27.248Z,65.36
2018-12-20T17:33:56.836Z,64.76
2018-12-20T17:36:25.857Z,65.33
2018-12-20T17:38:56.063Z,64.73
2018-12-20T17:41:25.506Z,64.95
2018-12-20T17:44:02.703Z,64.81
2018-12-20T17:49:46.253Z,64.36
2018-12-20T17:52:19.004Z,65.16
2018-12-20T17:54:51.607Z,64.96
2018-12-20T17:57:30.346Z,65.92
2018-12-20T18:00:00.372Z,65.59
2018-12-20T18:02:36.760Z,66.00
2018-12-20T18:05:24.589Z,65.82
2018-12-20T18:10:48.045Z,66.65
2018-12-20T18:13:18.280Z,65.87
2018-12-20T18:15:47.873Z,66.63
2018-12-20T18:18:20.161Z,67.14
2018-12-20T18:21:01.324Z,66.74
2018-12-20T18:23:31.875Z,66.48
2018-12-20T18:27:48.667Z,65.80
2018-12-20T18:30:21.313Z,66.50
2018-12-20T18:32:49.823Z,66.36
2018-12-20T18:35:19.984Z,66.54
2018-12-20T18:37:52.626Z,66.54
2018-12-20T18:40:23.303Z,65.73
2018-12-20T18:42:51.604Z,65.10
2018-12-20T18:45:20.782Z,65.78
2018-12-20T18:47:51.512Z,66.47
2018-12-20T18:50:24.677Z,65.88
2018-12-20T18:52:57.575Z,66.64
2018-12-20T18:55:30.782Z,66.41
2018-12-20T18:58:02.084Z,66.08
2018-12-20T19:00:37.044Z,66.66
2018-12-20T19:03:07.289Z,66.04
2018-12-20T19:05:36.982Z,66.09
2018-12-20T19:08:08.155Z,65.51
2018-12-20T19:10:38.809Z,65.69
2018-12-20T19:13:09.818Z,66.19
2018-12-20T19:15:38.891Z,65.56
2018-12-20T19:18:12.092Z,66.06
2018-12-20T19:20:41.498Z,65.40
2018-12-20T19:23:10.335Z,65.83
2018-12-20T19:25:38.632Z,65.30
2018-12-20T19:28:10.353Z,66.28
2018-12-20T19:30:39.825Z,66.14
2018-12-20T19:33:09.393Z,66.11
2018-12-20T19:35:39.400Z,66.05
2018-12-20T19:38:07.954Z,65.78
2018-12-20T19:40:44.876Z,65.83
2018-12-20T19:43:17.041Z,65.90
2018-12-20T19:45:52.053Z,66.73
2018-12-20T19:48:25.943Z,66.27
2018-12-20T19:50:58.103Z,66.49
2018-12-20T19:53:27.197Z,66.24
2018-12-20T19:55:59.273Z,66.60
2018-12-20T19:58:30.799Z,65.94
2018-12-20T20:01:00.738Z,66.20
2018-12-20T20:03:31.631Z,66.18
2018-12-20T20:06:02.646Z,65.78
2018-12-20T20:08:33.382Z,65.89
2018-12-20T20:11:02.835Z,66.02
2018-12-20T20:15:41.667Z,65.51
2018-12-20T20:18:13.881Z,65.73
2018-12-20T20:20:51.946Z,65.09
2018-12-20T20:23:35.865Z,65.57
2018-12-20T20:26:04.875Z,65.52
2018-12-20T20:28:34.707Z,65.40
2018-12-20T20:31:08.380Z,65.05
2018-12-20T20:33:40.118Z,64.73
2018-12-20T20:36:18.937Z,65.30
2018-12-20T20:38:52.539Z,64.21
2018-12-20T20:41:27.978Z,64.72
2018-12-20T20:44:00.388Z,64.15
2018-12-20T20:49:22.256Z,64.68
2018-12-20T20:51:51.911Z,64.49
2018-12-20T20:54:28.722Z,64.26
2018-12-20T20:57:07.495Z,63.77
2018-12-20T20:59:50.640Z,63.96
2018-12-20T21:02:16.516Z,65.23
2018-12-20T21:04:54.480Z,65.93
2018-12-20T21:07:33.237Z,65.57
2018-12-20T21:10:02.956Z,65.56
2018-12-20T21:12:42.433Z,65.69
2018-12-20T21:15:19.837Z,65.83
2018-12-20T21:17:50.579Z,66.67
2018-12-20T21:20:30.625Z,65.73
2018-12-20T21:22:58.161Z,65.75
2018-12-20T21:25:47.291Z,65.22
2018-12-20T21:28:24.278Z,65.09
2018-12-20T21:33:37.287Z,65.19
2018-12-20T21:36:09.322Z,65.01
2018-12-20T21:38:48.294Z,65.23
2018-12-20T21:41:18.960Z,65.55
2018-12-20T21:43:50.102Z,65.42
2018-12-20T21:46:23.296Z,65.41
2018-12-20T21:48:55.463Z,64.88
2018-12-20T21:51:25.141Z,65.49
2018-12-20T21:53:58.446Z,65.85
2018-12-20T21:56:27.925Z,65.58
2018-12-20T21:59:01.673Z,65.20
2018-12-20T22:01:32.452Z,64.95
2018-12-20T22:04:12.593Z,65.26
2018-12-20T22:06:44.985Z,65.21
2018-12-20T22:09:17.794Z,65.75
2018-12-20T22:11:52.059Z,65.30
2018-12-20T22:14:26.904Z,65.00
2018-12-20T22:17:02.882Z,64.37
2018-12-20T22:19:43.229Z,64.41
2018-12-20T22:22:15.615Z,64.07
2018-12-20T22:24:52.043Z,64.42
2018-12-20T22:27:23.659Z,63.67
2018-12-20T22:29:55.394Z,64.21
2018-12-20T22:32:23.873Z,63.79
2018-12-20T22:34:56.674Z,63.61
2018-12-20T22:37:30.171Z,63.93
2018-12-20T22:40:01.095Z,63.47
2018-12-20T22:42:36.290Z,62.70
2018-12-20T22:45:16.952Z,63.03
2018-12-20T22:47:50.871Z,62.90
2018-12-20T22:50:22.758Z,63.26
2018-12-20T22:52:53.948Z,62.87
2018-12-20T22:55:26.087Z,62.36
2018-12-20T22:57:56.989Z,61.75
2018-12-20T23:00:26.576Z,62.47
2018-12-20T23:02:56.543Z,62.30
2018-12-20T23:05:30.675Z,61.89
2018-12-20T23:08:03.170Z,61.83
2018-12-20T23:10:44.679Z,61.97
2018-12-20T23:13:20.893Z,61.79
2018-12-20T23:15:51.041Z,61.59
2018-12-20T23:18:26.144Z,61.24
2018-12-20T23:26:52.591Z,61.93
2018-12-20T23:29:23.223Z,61.46
2018-12-20T23:32:04.863Z,62.14
2018-12-20T23:34:35.604Z,61.77
2018-12-20T23:37:06.771Z,61.89
2018-12-20T23:39:36.590Z,62.05
2018-12-20T23:42:12.079Z,61.97
2018-12-20T23:46:39.383Z,61.57
2018-12-20T23:49:09.677Z,61.56
2018-12-20T23:51:45.287Z,61.74
2018-12-20T23:56:35.570Z,61.82
2018-12-20T23:59:10.631Z,61.01
